Impacts TAF Board
For situational awareness. Not to be used for flight planning purposes.
IDs:

KZZV - Zanesville Muni, OH, US

Issued at 1723 UTC 02 Oct 2022
Updated at 1902 UTC 02 Oct 2022
Potential Impact None Slight Moderate High
Time1853Z 02/20Z 02/21Z 02/22Z 02/23Z 03/00Z 03/01Z 03/02Z 03/03Z 03/04Z 03/05Z 03/06Z 03/07Z 03/08Z>>
Type OBS PRVL PRVL PRVL PRVL PRVL PRVL PRVL PRVL PRVL PRVL PRVL PRVL PRVL
VIS 10 >6 >6 >6 >6 >6 >6 >6 >6 >6 >6 >6 >6 >6
CIG 50 50 50 50 -- -- -- -- -- -- -- -- -- --
Cover BKN BKN BKN BKN SKC SKC SKC SKC SKC SKC SKC SKC SKC SKC
FltCat VFR VFR VFR VFR VFR VFR VFR VFR VFR VFR VFR VFR VFR VFR
WX -- -- -- -- -- -- -- -- -- -- -- -- -- --
WDir 360 20 20 20 20 20 20 20 20 20 20 20 20 20
WSpd 9 8 8 8 5 5 5 5 5 5 5 5 5 5
WGst 17 18 18 18 -- -- -- -- -- -- -- -- -- --
WSHgt -- -- -- -- -- -- -- -- -- -- -- -- -- --
WSDir -- -- -- -- -- -- -- -- -- -- -- -- -- --
WSSpd -- -- -- -- -- -- -- -- -- -- -- -- -- --
Raw TAF
KZZV 021723Z 0218/0318 02008G18KT P6SM BKN050
  FM022300 02005KT P6SM SKC


Raw METAR
KZZV 021853Z AUTO 36009G17KT 10SM SCT040 BKN050 19/10 A3014 RMK AO2 SLP204 T01940100
KZZV 021753Z AUTO 02013G19KT 10SM FEW040 OVC049 19/10 A3015 RMK AO2 SLP208 T01890100 10189 20128 53001
KZZV 021653Z AUTO 03012KT 10SM FEW034 OVC047 18/09 A3015 RMK AO2 SLP206 T01780094

METAR Board
Radar Display
Forecast Discussion
For situational awareness. Not to be used for flight planning purposes.